sensor_id;sensor_type;location;lat;lon;timestamp;pressure;altitude;pressure_sealevel;temperature;humidity
66486;BME280;53303;47.476;8.084;2024-01-07T00:01:13;94549.84;;;18.65;44.59
66486;BME280;53303;47.476;8.084;2024-01-07T00:03:40;94540.81;;;18.64;44.51
66486;BME280;53303;47.476;8.084;2024-01-07T00:06:07;94538.56;;;18.63;44.50
66486;BME280;53303;47.476;8.084;2024-01-07T00:08:33;94538.84;;;18.59;44.59
66486;BME280;53303;47.476;8.084;2024-01-07T00:11:00;94539.09;;;18.61;44.55
66486;BME280;53303;47.476;8.084;2024-01-07T00:13:26;94544.84;;;18.63;44.62
66486;BME280;53303;47.476;8.084;2024-01-07T00:15:51;94543.81;;;18.67;44.58
66486;BME280;53303;47.476;8.084;2024-01-07T00:18:19;94538.56;;;18.63;44.53
66486;BME280;53303;47.476;8.084;2024-01-07T00:20:44;94528.38;;;18.52;44.23
66486;BME280;53303;47.476;8.084;2024-01-07T00:23:10;94547.09;;;18.65;44.43
66486;BME280;53303;47.476;8.084;2024-01-07T00:25:35;94533.78;;;18.63;44.47
66486;BME280;53303;47.476;8.084;2024-01-07T00:28:00;94547.09;;;18.65;44.69
66486;BME280;53303;47.476;8.084;2024-01-07T00:30:26;94545.34;;;18.62;44.39
66486;BME280;53303;47.476;8.084;2024-01-07T00:32:54;94529.81;;;18.59;44.52
66486;BME280;53303;47.476;8.084;2024-01-07T00:35:19;94533.03;;;18.63;44.34
66486;BME280;53303;47.476;8.084;2024-01-07T00:37:47;94535.03;;;18.62;44.52
66486;BME280;53303;47.476;8.084;2024-01-07T00:40:12;94536.03;;;18.65;44.52
66486;BME280;53303;47.476;8.084;2024-01-07T00:42:40;94539.75;;;18.68;44.55
66486;BME280;53303;47.476;8.084;2024-01-07T00:45:09;94541.50;;;18.71;44.55
66486;BME280;53303;47.476;8.084;2024-01-07T00:47:35;94531.75;;;18.64;44.29
66486;BME280;53303;47.476;8.084;2024-01-07T00:50:00;94550.53;;;18.71;44.37
66486;BME280;53303;47.476;8.084;2024-01-07T00:52:25;94540.75;;;18.70;44.52
66486;BME280;53303;47.476;8.084;2024-01-07T00:54:51;94542.00;;;18.69;44.36
66486;BME280;53303;47.476;8.084;2024-01-07T00:57:16;94545.75;;;18.72;44.38
66486;BME280;53303;47.476;8.084;2024-01-07T00:59:44;94550.00;;;18.73;44.34
66486;BME280;53303;47.476;8.084;2024-01-07T01:02:09;94543.75;;;18.72;44.19
66486;BME280;53303;47.476;8.084;2024-01-07T01:04:38;94553.50;;;18.73;44.27
66486;BME280;53303;47.476;8.084;2024-01-07T01:07:06;94540.75;;;18.70;44.28
66486;BME280;53303;47.476;8.084;2024-01-07T01:09:32;94545.22;;;18.73;44.24
66486;BME280;53303;47.476;8.084;2024-01-07T01:12:00;94545.50;;;18.70;44.42
66486;BME280;53303;47.476;8.084;2024-01-07T01:14:25;94548.53;;;18.72;44.26
66486;BME280;53303;47.476;8.084;2024-01-07T01:16:51;94549.03;;;18.70;44.19
66486;BME280;53303;47.476;8.084;2024-01-07T01:19:17;94542.75;;;18.70;44.34
66486;BME280;53303;47.476;8.084;2024-01-07T01:21:43;94542.75;;;18.70;44.35
66486;BME280;53303;47.476;8.084;2024-01-07T01:24:08;94550.22;;;18.75;44.20
66486;BME280;53303;47.476;8.084;2024-01-07T01:26:34;94552.31;;;18.69;44.55
66486;BME280;53303;47.476;8.084;2024-01-07T01:28:59;94548.75;;;18.74;44.31
66486;BME280;53303;47.476;8.084;2024-01-07T01:31:27;94558.06;;;18.71;44.65
66486;BME280;53303;47.476;8.084;2024-01-07T01:33:54;94558.28;;;18.73;44.26
66486;BME280;53303;47.476;8.084;2024-01-07T01:36:22;94562.06;;;18.75;44.30
66486;BME280;53303;47.476;8.084;2024-01-07T01:38:48;94559.03;;;18.73;44.15
66486;BME280;53303;47.476;8.084;2024-01-07T01:41:14;94516.78;;;18.54;44.11
66486;BME280;53303;47.476;8.084;2024-01-07T01:43:39;94559.28;;;18.75;44.13
66486;BME280;53303;47.476;8.084;2024-01-07T01:46:07;94560.03;;;18.76;44.17
66486;BME280;53303;47.476;8.084;2024-01-07T01:48:35;94553.22;;;18.77;44.33
66486;BME280;53303;47.476;8.084;2024-01-07T01:51:01;94545.75;;;18.72;43.80
66486;BME280;53303;47.476;8.084;2024-01-07T01:53:28;94547.47;;;18.75;44.28
66486;BME280;53303;47.476;8.084;2024-01-07T01:55:57;94554.06;;;18.72;44.17
66486;BME280;53303;47.476;8.084;2024-01-07T01:58:23;94551.50;;;18.74;44.31
66486;BME280;53303;47.476;8.084;2024-01-07T02:00:48;94547.47;;;18.75;44.34
66486;BME280;53303;47.476;8.084;2024-01-07T02:03:16;94551.75;;;18.76;44.42
66486;BME280;53303;47.476;8.084;2024-01-07T02:05:41;94547.25;;;18.73;44.12
66486;BME280;53303;47.476;8.084;2024-01-07T02:08:07;94551.97;;;18.78;44.17
66486;BME280;53303;47.476;8.084;2024-01-07T02:10:33;94557.50;;;18.78;44.36
66486;BME280;53303;47.476;8.084;2024-01-07T02:13:02;94545.22;;;18.73;44.27
66486;BME280;53303;47.476;8.084;2024-01-07T02:15:29;94544.47;;;18.73;44.34
66486;BME280;53303;47.476;8.084;2024-01-07T02:17:55;94561.00;;;18.78;44.23
66486;BME280;53303;47.476;8.084;2024-01-07T02:20:23;94539.75;;;18.68;44.28
66486;BME280;53303;47.476;8.084;2024-01-07T02:22:48;94548.22;;;18.75;44.18
66486;BME280;53303;47.476;8.084;2024-01-07T02:25:13;94551.81;;;18.70;44.23
66486;BME280;53303;47.476;8.084;2024-01-07T02:27:41;94561.50;;;18.77;44.20
66486;BME280;53303;47.476;8.084;2024-01-07T02:30:07;94560.03;;;18.76;44.27
66486;BME280;53303;47.476;8.084;2024-01-07T02:32:32;94555.75;;;18.75;44.21
66486;BME280;53303;47.476;8.084;2024-01-07T02:35:00;94541.50;;;18.71;44.23
66486;BME280;53303;47.476;8.084;2024-01-07T02:37:28;94543.97;;;18.74;44.11
66486;BME280;53303;47.476;8.084;2024-01-07T02:39:53;94554.72;;;18.78;44.22
66486;BME280;53303;47.476;8.084;2024-01-07T02:42:19;94556.22;;;18.79;44.26
66486;BME280;53303;47.476;8.084;2024-01-07T02:44:44;94564.53;;;18.79;44.18
66486;BME280;53303;47.476;8.084;2024-01-07T02:47:12;94552.47;;;18.76;44.21
66486;BME280;53303;47.476;8.084;2024-01-07T02:49:37;94553.00;;;18.75;44.26
66486;BME280;53303;47.476;8.084;2024-01-07T02:52:05;94550.22;;;18.75;44.41
66486;BME280;53303;47.476;8.084;2024-01-07T02:54:31;94546.94;;;18.76;44.18
66486;BME280;53303;47.476;8.084;2024-01-07T02:56:56;94553.47;;;18.79;44.30
66486;BME280;53303;47.476;8.084;2024-01-07T02:59:21;94549.19;;;18.78;44.33
66486;BME280;53303;47.476;8.084;2024-01-07T03:01:47;94542.16;;;18.77;44.30
66486;BME280;53303;47.476;8.084;2024-01-07T03:04:15;94545.69;;;18.77;44.27
66486;BME280;53303;47.476;8.084;2024-01-07T03:06:40;94550.72;;;18.79;44.04
66486;BME280;53303;47.476;8.084;2024-01-07T03:09:08;94551.44;;;18.79;44.17
66486;BME280;53303;47.476;8.084;2024-01-07T03:11:39;94557.72;;;18.80;44.35
66486;BME280;53303;47.476;8.084;2024-01-07T03:14:05;94543.97;;;18.74;44.32
66486;BME280;53303;47.476;8.084;2024-01-07T03:16:30;94552.69;;;18.78;44.15
66486;BME280;53303;47.476;8.084;2024-01-07T03:18:58;94543.97;;;18.74;44.29
66486;BME280;53303;47.476;8.084;2024-01-07T03:21:26;94546.72;;;18.74;44.18
66486;BME280;53303;47.476;8.084;2024-01-07T03:23:52;94555.19;;;18.82;44.22
66486;BME280;53303;47.476;8.084;2024-01-07T03:26:20;94552.44;;;18.82;44.28
66486;BME280;53303;47.476;8.084;2024-01-07T03:28:45;94554.47;;;18.81;44.38
66486;BME280;53303;47.476;8.084;2024-01-07T03:31:12;94555.19;;;18.82;44.20
66486;BME280;53303;47.476;8.084;2024-01-07T03:33:39;94559.22;;;18.81;44.47
66486;BME280;53303;47.476;8.084;2024-01-07T03:36:11;94559.22;;;18.81;44.22
66486;BME280;53303;47.476;8.084;2024-01-07T03:38:40;94552.78;;;18.73;44.34
66486;BME280;53303;47.476;8.084;2024-01-07T03:41:08;94567.03;;;18.82;44.14
66486;BME280;53303;47.476;8.084;2024-01-07T03:43:34;94554.50;;;18.76;44.08
66486;BME280;53303;47.476;8.084;2024-01-07T03:45:59;94552.47;;;18.76;44.12
66486;BME280;53303;47.476;8.084;2024-01-07T03:48:28;94563.00;;;18.78;44.16
66486;BME280;53303;47.476;8.084;2024-01-07T03:50:53;94564.53;;;18.79;43.99
66486;BME280;53303;47.476;8.084;2024-01-07T03:53:18;94562.06;;;18.75;44.28
66486;BME280;53303;47.476;8.084;2024-01-07T03:55:47;94568.78;;;18.80;44.16
66486;BME280;53303;47.476;8.084;2024-01-07T03:58:12;94567.03;;;18.77;44.16
66486;BME280;53303;47.476;8.084;2024-01-07T04:00:40;94571.78;;;18.82;44.03
66486;BME280;53303;47.476;8.084;2024-01-07T04:03:05;94579.34;;;18.81;44.21
66486;BME280;53303;47.476;8.084;2024-01-07T04:05:33;94578.09;;;18.82;44.11
66486;BME280;53303;47.476;8.084;2024-01-07T04:08:00;94567.28;;;18.79;44.23
66486;BME280;53303;47.476;8.084;2024-01-07T04:10:26;94585.09;;;18.83;44.16
66486;BME280;53303;47.476;8.084;2024-01-07T04:12:52;94581.59;;;18.83;44.15
66486;BME280;53303;47.476;8.084;2024-01-07T04:15:17;94584.34;;;18.83;44.23
66486;BME280;53303;47.476;8.084;2024-01-07T04:17:42;94583.59;;;18.82;44.34
66486;BME280;53303;47.476;8.084;2024-01-07T04:20:08;94589.13;;;18.82;44.26
66486;BME280;53303;47.476;8.084;2024-01-07T04:22:33;94586.63;;;18.79;43.86
66486;BME280;53303;47.476;8.084;2024-01-07T04:25:04;94579.34;;;18.81;44.28
66486;BME280;53303;47.476;8.084;2024-01-07T04:27:36;94586.38;;;18.77;44.29
66486;BME280;53303;47.476;8.084;2024-01-07T04:30:03;94594.38;;;18.80;44.16
66486;BME280;53303;47.476;8.084;2024-01-07T04:32:28;94588.13;;;18.80;44.35
66486;BME280;53303;47.476;8.084;2024-01-07T04:34:53;94587.16;;;18.77;44.38
66486;BME280;53303;47.476;8.084;2024-01-07T04:37:19;94591.63;;;18.80;44.28
66486;BME280;53303;47.476;8.084;2024-01-07T04:39:44;94588.84;;;18.80;44.11
66486;BME280;53303;47.476;8.084;2024-01-07T04:42:10;94594.38;;;18.80;44.29
66486;BME280;53303;47.476;8.084;2024-01-07T04:44:35;94600.94;;;18.83;44.29
66486;BME280;53303;47.476;8.084;2024-01-07T04:47:00;94596.16;;;18.83;44.15
66486;BME280;53303;47.476;8.084;2024-01-07T04:49:29;94588.13;;;18.80;44.02
66486;BME280;53303;47.476;8.084;2024-01-07T04:51:54;94603.69;;;18.83;44.14
66486;BME280;53303;47.476;8.084;2024-01-07T04:54:22;94591.63;;;18.80;44.28
66486;BME280;53303;47.476;8.084;2024-01-07T04:56:47;94589.16;;;18.77;44.25
66486;BME280;53303;47.476;8.084;2024-01-07T04:59:13;94594.16;;;18.78;43.99
66486;BME280;53303;47.476;8.084;2024-01-07T05:01:38;94587.63;;;18.81;44.25
66486;BME280;53303;47.476;8.084;2024-01-07T05:04:04;94601.66;;;18.83;44.27
66486;BME280;53303;47.476;8.084;2024-01-07T05:06:32;94594.38;;;18.80;43.97
66486;BME280;53303;47.476;8.084;2024-01-07T05:08:57;94601.66;;;18.83;44.27
66486;BME280;53303;47.476;8.084;2024-01-07T05:11:23;94585.19;;;18.72;44.13
66486;BME280;53303;47.476;8.084;2024-01-07T05:13:50;94600.94;;;18.83;44.02
66486;BME280;53303;47.476;8.084;2024-01-07T05:16:19;94601.94;;;18.80;44.25
66486;BME280;53303;47.476;8.084;2024-01-07T05:18:47;94611.25;;;18.82;44.14
66486;BME280;53303;47.476;8.084;2024-01-07T05:21:22;94602.97;;;18.77;44.10
66486;BME280;53303;47.476;8.084;2024-01-07T05:23:48;94607.47;;;18.80;44.14
66486;BME280;53303;47.476;8.084;2024-01-07T05:26:13;94603.97;;;18.79;44.27
66486;BME280;53303;47.476;8.084;2024-01-07T05:28:38;94597.16;;;18.80;44.22
66486;BME280;53303;47.476;8.084;2024-01-07T05:31:04;94603.97;;;18.79;44.28
66486;BME280;53303;47.476;8.084;2024-01-07T05:33:29;94596.69;;;18.76;44.19
66486;BME280;53303;47.476;8.084;2024-01-07T05:35:54;94605.72;;;18.82;44.20
66486;BME280;53303;47.476;8.084;2024-01-07T05:38:23;94614.50;;;18.81;44.34
66486;BME280;53303;47.476;8.084;2024-01-07T05:40:48;94617.50;;;18.83;44.22
66486;BME280;53303;47.476;8.084;2024-01-07T05:43:13;94624.53;;;18.84;44.19
66486;BME280;53303;47.476;8.084;2024-01-07T05:45:39;94601.03;;;18.72;44.30
66486;BME280;53303;47.476;8.084;2024-01-07T05:48:07;94622.03;;;18.80;44.23
66486;BME280;53303;47.476;8.084;2024-01-07T05:50:34;94623.56;;;18.81;44.24
66486;BME280;53303;47.476;8.084;2024-01-07T05:53:00;94622.78;;;18.81;44.67
66486;BME280;53303;47.476;8.084;2024-01-07T05:55:25;94615.75;;;18.80;44.15
66486;BME280;53303;47.476;8.084;2024-01-07T05:57:50;94628.09;;;18.79;44.11
66486;BME280;53303;47.476;8.084;2024-01-07T06:00:16;94634.63;;;18.81;44.24
66486;BME280;53303;47.476;8.084;2024-01-07T06:02:42;94634.31;;;18.85;44.29
66486;BME280;53303;47.476;8.084;2024-01-07T06:05:07;94632.59;;;18.82;44.17
66486;BME280;53303;47.476;8.084;2024-01-07T06:07:33;94628.31;;;18.81;44.31
66486;BME280;53303;47.476;8.084;2024-01-07T06:09:59;94632.34;;;18.80;44.38
66486;BME280;53303;47.476;8.084;2024-01-07T06:12:25;94637.59;;;18.83;44.14
66486;BME280;53303;47.476;8.084;2024-01-07T06:14:50;94633.06;;;18.80;44.25
66486;BME280;53303;47.476;8.084;2024-01-07T06:17:15;94633.84;;;18.81;44.08
66486;BME280;53303;47.476;8.084;2024-01-07T06:19:41;94638.13;;;18.82;44.47
66486;BME280;53303;47.476;8.084;2024-01-07T06:22:06;94625.06;;;18.77;44.32
66486;BME280;53303;47.476;8.084;2024-01-07T06:24:34;94629.56;;;18.80;44.12
66486;BME280;53303;47.476;8.084;2024-01-07T06:26:59;94636.41;;;18.73;44.22
66486;BME280;53303;47.476;8.084;2024-01-07T06:29:25;94644.41;;;18.82;44.43
66486;BME280;53303;47.476;8.084;2024-01-07T06:31:55;94630.59;;;18.77;44.36
66486;BME280;53303;47.476;8.084;2024-01-07T06:34:23;94647.44;;;18.79;44.32
66486;BME280;53303;47.476;8.084;2024-01-07T06:36:48;94655.69;;;18.85;44.25
66486;BME280;53303;47.476;8.084;2024-01-07T06:39:17;94656.44;;;18.85;44.25
66486;BME280;53303;47.476;8.084;2024-01-07T06:41:45;94654.44;;;18.80;44.39
66486;BME280;53303;47.476;8.084;2024-01-07T06:44:10;94663.75;;;18.82;44.29
66486;BME280;53303;47.476;8.084;2024-01-07T06:46:35;94661.25;;;18.79;44.33
66486;BME280;53303;47.476;8.084;2024-01-07T06:49:05;94654.97;;;18.78;44.36
66486;BME280;53303;47.476;8.084;2024-01-07T06:51:31;94669.50;;;18.85;44.39
66486;BME280;53303;47.476;8.084;2024-01-07T06:53:56;94663.22;;;18.84;44.33
66486;BME280;53303;47.476;8.084;2024-01-07T06:56:24;94665.97;;;18.84;44.33
66486;BME280;53303;47.476;8.084;2024-01-07T06:58:49;94660.78;;;18.75;44.34
66486;BME280;53303;47.476;8.084;2024-01-07T07:01:19;94674.53;;;18.80;44.37
66486;BME280;53303;47.476;8.084;2024-01-07T07:03:44;94673.03;;;18.85;44.38
66486;BME280;53303;47.476;8.084;2024-01-07T07:06:12;94668.25;;;18.80;44.25
66486;BME280;53303;47.476;8.084;2024-01-07T07:08:38;94674.53;;;18.80;44.16
66486;BME280;53303;47.476;8.084;2024-01-07T07:11:05;94672.31;;;18.79;44.32
66486;BME280;53303;47.476;8.084;2024-01-07T07:13:33;94676.81;;;18.82;44.23
66486;BME280;53303;47.476;8.084;2024-01-07T07:16:01;94683.34;;;18.85;44.46
66486;BME280;53303;47.476;8.084;2024-01-07T07:18:26;94686.84;;;18.85;44.34
66486;BME280;53303;47.476;8.084;2024-01-07T07:20:52;94676.31;;;18.78;44.33
66486;BME280;53303;47.476;8.084;2024-01-07T07:23:18;94688.34;;;18.86;44.26
66486;BME280;53303;47.476;8.084;2024-01-07T07:25:43;94688.88;;;18.85;44.57
66486;BME280;53303;47.476;8.084;2024-01-07T07:28:09;94684.09;;;18.79;44.68
66486;BME280;53303;47.476;8.084;2024-01-07T07:30:34;94691.41;;;18.82;44.36
66486;BME280;53303;47.476;8.084;2024-01-07T07:32:59;94692.66;;;18.81;43.63
66486;BME280;53303;47.476;8.084;2024-01-07T07:35:25;94690.38;;;18.80;43.43
66486;BME280;53303;47.476;8.084;2024-01-07T07:37:50;94700.19;;;18.81;43.04
66486;BME280;53303;47.476;8.084;2024-01-07T07:40:18;94702.69;;;18.85;42.47
66486;BME280;53303;47.476;8.084;2024-01-07T07:42:44;94704.19;;;18.80;42.08
66486;BME280;53303;47.476;8.084;2024-01-07T07:45:11;94706.00;;;18.77;41.08
66486;BME280;53303;47.476;8.084;2024-01-07T07:47:37;94696.69;;;18.75;40.64
66486;BME280;53303;47.476;8.084;2024-01-07T07:50:06;94698.72;;;18.74;40.63
66486;BME280;53303;47.476;8.084;2024-01-07T07:52:31;94695.00;;;18.72;40.90
66486;BME280;53303;47.476;8.084;2024-01-07T07:54:57;94698.50;;;18.72;41.06
66486;BME280;53303;47.476;8.084;2024-01-07T07:57:23;94697.78;;;18.66;41.10
66486;BME280;53303;47.476;8.084;2024-01-07T07:59:50;94706.03;;;18.72;41.24
66486;BME280;53303;47.476;8.084;2024-01-07T08:02:16;94704.81;;;18.67;41.35
66486;BME280;53303;47.476;8.084;2024-01-07T08:04:41;94703.78;;;18.70;41.50
66486;BME280;53303;47.476;8.084;2024-01-07T08:07:08;94705.03;;;18.69;41.58
66486;BME280;53303;47.476;8.084;2024-01-07T08:09:33;94702.34;;;18.63;41.67
66486;BME280;53303;47.476;8.084;2024-01-07T08:12:02;94714.06;;;18.70;41.68
66486;BME280;53303;47.476;8.084;2024-01-07T08:14:27;94714.06;;;18.70;41.71
66486;BME280;53303;47.476;8.084;2024-01-07T08:16:54;94701.59;;;18.63;42.10
66486;BME280;53303;47.476;8.084;2024-01-07T08:19:19;94718.84;;;18.69;42.11
66486;BME280;53303;47.476;8.084;2024-01-07T08:21:45;94716.88;;;18.64;42.32
66486;BME280;53303;47.476;8.084;2024-01-07T08:24:11;94725.13;;;18.70;42.03
66486;BME280;53303;47.476;8.084;2024-01-07T08:26:36;94719.88;;;18.66;42.22
66486;BME280;53303;47.476;8.084;2024-01-07T08:29:02;94723.41;;;18.67;42.31
66486;BME280;53303;47.476;8.084;2024-01-07T08:31:27;94721.16;;;18.65;42.23
66486;BME280;53303;47.476;8.084;2024-01-07T08:33:52;94725.66;;;18.68;42.43
66486;BME280;53303;47.476;8.084;2024-01-07T08:36:23;94723.94;;;18.65;42.15
66486;BME280;53303;47.476;8.084;2024-01-07T08:38:48;94727.66;;;18.68;42.53
66486;BME280;53303;47.476;8.084;2024-01-07T08:41:17;94737.69;;;18.71;42.42
66486;BME280;53303;47.476;8.084;2024-01-07T08:43:43;94694.94;;;18.47;42.31
66486;BME280;53303;47.476;8.084;2024-01-07T08:46:12;94741.97;;;18.72;42.43
66486;BME280;53303;47.476;8.084;2024-01-07T08:48:39;94730.94;;;18.66;42.36
66486;BME280;53303;47.476;8.084;2024-01-07T08:51:04;94723.19;;;18.64;42.53
66486;BME280;53303;47.476;8.084;2024-01-07T08:53:31;94738.19;;;18.69;42.52
66486;BME280;53303;47.476;8.084;2024-01-07T08:55:56;94739.22;;;18.66;42.57
66486;BME280;53303;47.476;8.084;2024-01-07T08:58:22;94754.28;;;18.71;42.57
66486;BME280;53303;47.476;8.084;2024-01-07T09:00:50;94751.00;;;18.72;42.65
66486;BME280;53303;47.476;8.084;2024-01-07T09:03:15;94744.72;;;18.72;42.64
66486;BME280;53303;47.476;8.084;2024-01-07T09:05:40;94752.03;;;18.69;42.51
66486;BME280;53303;47.476;8.084;2024-01-07T09:08:06;94749.50;;;18.71;42.82
66486;BME280;53303;47.476;8.084;2024-01-07T09:10:32;94755.78;;;18.72;42.76
66486;BME280;53303;47.476;8.084;2024-01-07T09:13:02;94757.78;;;18.71;42.85
66486;BME280;53303;47.476;8.084;2024-01-07T09:15:28;94752.03;;;18.69;42.86
66486;BME280;53303;47.476;8.084;2024-01-07T09:17:53;94757.78;;;18.71;42.75
66486;BME280;53303;47.476;8.084;2024-01-07T09:20:19;94763.81;;;18.70;42.77
66486;BME280;53303;47.476;8.084;2024-01-07T09:22:47;94764.34;;;18.68;42.89
66486;BME280;53303;47.476;8.084;2024-01-07T09:25:13;94761.59;;;18.68;42.85
66486;BME280;53303;47.476;8.084;2024-01-07T09:27:39;94764.88;;;18.67;42.92
66486;BME280;53303;47.476;8.084;2024-01-07T09:30:04;94770.34;;;18.72;42.75
66486;BME280;53303;47.476;8.084;2024-01-07T09:32:31;94773.84;;;18.73;42.88
66486;BME280;53303;47.476;8.084;2024-01-07T09:34:59;94788.66;;;18.75;43.06
66486;BME280;53303;47.476;8.084;2024-01-07T09:37:27;94773.38;;;18.69;43.02
66486;BME280;53303;47.476;8.084;2024-01-07T09:39:52;94785.91;;;18.75;42.87
66486;BME280;53303;47.476;8.084;2024-01-07T09:42:20;94787.16;;;18.74;43.02
66486;BME280;53303;47.476;8.084;2024-01-07T09:44:50;94785.13;;;18.75;42.88
66486;BME280;53303;47.476;8.084;2024-01-07T09:47:16;94790.91;;;18.77;42.84
66486;BME280;53303;47.476;8.084;2024-01-07T09:49:42;94785.38;;;18.77;43.07
66486;BME280;53303;47.476;8.084;2024-01-07T09:52:10;94783.41;;;18.72;43.03
66486;BME280;53303;47.476;8.084;2024-01-07T09:54:39;94790.91;;;18.77;42.98
66486;BME280;53303;47.476;8.084;2024-01-07T09:57:07;94792.41;;;18.78;43.19
66486;BME280;53303;47.476;8.084;2024-01-07T09:59:35;94783.66;;;18.74;43.30
66486;BME280;53303;47.476;8.084;2024-01-07T10:02:04;94795.16;;;18.78;43.21
66486;BME280;53303;47.476;8.084;2024-01-07T10:04:29;94777.41;;;18.68;43.16
66486;BME280;53303;47.476;8.084;2024-01-07T10:06:57;94778.91;;;18.69;43.16
66486;BME280;53303;47.476;8.084;2024-01-07T10:09:23;94790.66;;;18.75;43.29
66486;BME280;53303;47.476;8.084;2024-01-07T10:11:50;94787.91;;;18.75;43.21
66486;BME280;53303;47.476;8.084;2024-01-07T10:14:18;94776.16;;;18.69;43.23
66486;BME280;53303;47.476;8.084;2024-01-07T10:16:44;94789.63;;;18.78;43.39
66486;BME280;53303;47.476;8.084;2024-01-07T10:19:19;94785.91;;;18.75;43.35
66486;BME280;53303;47.476;8.084;2024-01-07T10:21:46;94780.41;;;18.70;43.38
66486;BME280;53303;47.476;8.084;2024-01-07T10:24:12;94787.91;;;18.75;43.41
66486;BME280;53303;47.476;8.084;2024-01-07T10:26:40;94791.91;;;18.79;43.22
66486;BME280;53303;47.476;8.084;2024-01-07T10:29:07;94784.84;;;18.78;43.36
66486;BME280;53303;47.476;8.084;2024-01-07T10:31:40;94788.38;;;18.79;43.39
66486;BME280;53303;47.476;8.084;2024-01-07T10:34:13;94796.69;;;18.79;43.49
66486;BME280;53303;47.476;8.084;2024-01-07T10:36:41;94785.38;;;18.77;43.32
66486;BME280;53303;47.476;8.084;2024-01-07T10:39:07;94762.34;;;18.69;43.48
66486;BME280;53303;47.476;8.084;2024-01-07T10:41:35;94772.81;;;18.76;43.45
66486;BME280;53303;47.476;8.084;2024-01-07T10:44:02;94768.09;;;18.71;43.56
66486;BME280;53303;47.476;8.084;2024-01-07T10:46:28;94783.88;;;18.81;43.35
66486;BME280;53303;47.476;8.084;2024-01-07T10:49:03;94785.38;;;18.82;43.55
66486;BME280;53303;47.476;8.084;2024-01-07T10:51:34;94766.03;;;18.77;43.31
66486;BME280;53303;47.476;8.084;2024-01-07T10:53:59;94770.28;;;18.78;43.49
66486;BME280;53303;47.476;8.084;2024-01-07T10:56:39;94754.56;;;18.67;43.50
66486;BME280;53303;47.476;8.084;2024-01-07T10:59:10;94770.53;;;18.80;43.57
66486;BME280;53303;47.476;8.084;2024-01-07T11:01:36;94776.53;;;18.84;43.59
66486;BME280;53303;47.476;8.084;2024-01-07T11:04:20;94773.56;;;18.82;43.57
66486;BME280;53303;47.476;8.084;2024-01-07T11:10:11;94762.50;;;18.76;43.48
66486;BME280;53303;47.476;8.084;2024-01-07T11:12:40;94773.03;;;18.83;43.59
66486;BME280;53303;47.476;8.084;2024-01-07T11:15:06;94778.06;;;18.85;43.56
66486;BME280;53303;47.476;8.084;2024-01-07T11:20:19;94761.50;;;18.79;43.65
66486;BME280;53303;47.476;8.084;2024-01-07T11:22:45;94742.19;;;18.74;43.59
66486;BME280;53303;47.476;8.084;2024-01-07T11:25:35;94751.91;;;18.80;43.74
66486;BME280;53303;47.476;8.084;2024-01-07T11:28:02;94753.47;;;18.81;43.78
66486;BME280;53303;47.476;8.084;2024-01-07T11:30:38;94757.19;;;18.84;43.60
66486;BME280;53303;47.476;8.084;2024-01-07T11:33:06;94758.00;;;18.79;43.65
66486;BME280;53303;47.476;8.084;2024-01-07T11:38:19;94754.69;;;18.80;43.81
66486;BME280;53303;47.476;8.084;2024-01-07T11:40:46;94745.94;;;18.76;43.79
66486;BME280;53303;47.476;8.084;2024-01-07T11:43:12;94753.19;;;18.85;43.67
66486;BME280;53303;47.476;8.084;2024-01-07T11:45:37;94753.47;;;18.81;43.77
66486;BME280;53303;47.476;8.084;2024-01-07T11:48:05;94751.44;;;18.82;43.69
66486;BME280;53303;47.476;8.084;2024-01-07T11:50:31;94752.66;;;18.87;43.68
66486;BME280;53303;47.476;8.084;2024-01-07T11:52:57;94755.44;;;18.87;43.79
66486;BME280;53303;47.476;8.084;2024-01-07T11:55:24;94749.91;;;18.87;43.75
66486;BME280;53303;47.476;8.084;2024-01-07T11:57:51;94744.66;;;18.83;43.64
66486;BME280;53303;47.476;8.084;2024-01-07T12:00:17;94741.91;;;18.83;43.69
66486;BME280;53303;47.476;8.084;2024-01-07T12:02:46;94745.91;;;18.82;43.68
66486;BME280;53303;47.476;8.084;2024-01-07T12:05:12;94750.66;;;18.87;43.73
66486;BME280;53303;47.476;8.084;2024-01-07T12:07:41;94756.94;;;18.88;43.74
66486;BME280;53303;47.476;8.084;2024-01-07T12:10:09;94744.66;;;18.83;43.79
66486;BME280;53303;47.476;8.084;2024-01-07T12:12:41;94757.69;;;18.88;44.05
66486;BME280;53303;47.476;8.084;2024-01-07T12:15:08;94755.66;;;18.89;43.64
66486;BME280;53303;47.476;8.084;2024-01-07T12:17:34;94747.88;;;18.87;43.77
66486;BME280;53303;47.476;8.084;2024-01-07T12:20:00;94745.16;;;18.81;43.88
66486;BME280;53303;47.476;8.084;2024-01-07T12:22:29;94756.94;;;18.88;43.74
66486;BME280;53303;47.476;8.084;2024-01-07T12:25:02;94751.41;;;18.88;43.67
66486;BME280;53303;47.476;8.084;2024-01-07T12:27:28;94737.13;;;18.78;43.84
66486;BME280;53303;47.476;8.084;2024-01-07T12:29:56;94743.16;;;18.82;43.89
66486;BME280;53303;47.476;8.084;2024-01-07T12:32:22;94752.16;;;18.88;43.90
66486;BME280;53303;47.476;8.084;2024-01-07T12:34:48;94754.91;;;18.88;43.78
66486;BME280;53303;47.476;8.084;2024-01-07T12:37:14;94750.19;;;18.83;43.63
66486;BME280;53303;47.476;8.084;2024-01-07T12:39:40;94750.66;;;18.87;43.90
66486;BME280;53303;47.476;8.084;2024-01-07T12:42:05;94742.63;;;18.83;43.77
66486;BME280;53303;47.476;8.084;2024-01-07T12:44:32;94740.13;;;18.80;43.89
66486;BME280;53303;47.476;8.084;2024-01-07T12:46:58;94749.41;;;18.88;43.80
66486;BME280;53303;47.476;8.084;2024-01-07T12:49:23;94743.38;;;18.84;43.93
66486;BME280;53303;47.476;8.084;2024-01-07T12:51:51;94750.88;;;18.89;43.87
66486;BME280;53303;47.476;8.084;2024-01-07T12:54:17;94753.63;;;18.89;43.79
66486;BME280;53303;47.476;8.084;2024-01-07T12:56:44;94739.63;;;18.81;43.65
66486;BME280;53303;47.476;8.084;2024-01-07T12:59:10;94740.63;;;18.84;43.93
66486;BME280;53303;47.476;8.084;2024-01-07T13:01:35;94744.66;;;18.83;43.74
66486;BME280;53303;47.476;8.084;2024-01-07T13:04:02;94723.19;;;18.64;44.01
66486;BME280;53303;47.476;8.084;2024-01-07T13:06:30;94744.16;;;18.85;44.01